sensor_id;sensor_type;location;lat;lon;timestamp;temperature;humidity
12889;DHT22;56848;49.896;11.424;2022-08-03T00:01:55;15.10;99.90
12889;DHT22;56848;49.896;11.424;2022-08-03T00:04:21;14.90;99.90
12889;DHT22;56848;49.896;11.424;2022-08-03T00:06:46;14.80;99.90
12889;DHT22;56848;49.896;11.424;2022-08-03T00:09:12;14.70;99.90
12889;DHT22;56848;49.896;11.424;2022-08-03T00:11:37;14.80;99.90
12889;DHT22;56848;49.896;11.424;2022-08-03T00:14:04;14.70;99.90
12889;DHT22;56848;49.896;11.424;2022-08-03T00:16:30;14.70;99.90
12889;DHT22;56848;49.896;11.424;2022-08-03T00:18:56;14.60;99.90
12889;DHT22;56848;49.896;11.424;2022-08-03T00:21:22;14.60;99.90
12889;DHT22;56848;49.896;11.424;2022-08-03T00:23:47;14.60;99.90
12889;DHT22;56848;49.896;11.424;2022-08-03T00:26:13;14.60;99.90
12889;DHT22;56848;49.896;11.424;2022-08-03T00:28:39;14.60;99.90
12889;DHT22;56848;49.896;11.424;2022-08-03T00:31:05;14.50;99.90
12889;DHT22;56848;49.896;11.424;2022-08-03T00:33:31;14.40;99.90
12889;DHT22;56848;49.896;11.424;2022-08-03T00:35:57;14.50;99.90
12889;DHT22;56848;49.896;11.424;2022-08-03T00:38:23;14.40;99.90
12889;DHT22;56848;49.896;11.424;2022-08-03T00:40:48;14.50;99.90
12889;DHT22;56848;49.896;11.424;2022-08-03T00:43:14;14.60;99.90
12889;DHT22;56848;49.896;11.424;2022-08-03T00:45:41;14.60;99.90
12889;DHT22;56848;49.896;11.424;2022-08-03T00:48:10;14.60;99.90
12889;DHT22;56848;49.896;11.424;2022-08-03T00:50:39;14.50;99.90
12889;DHT22;56848;49.896;11.424;2022-08-03T00:53:08;14.40;99.90
12889;DHT22;56848;49.896;11.424;2022-08-03T00:55:37;14.30;99.90
12889;DHT22;56848;49.896;11.424;2022-08-03T00:58:03;14.10;99.90
12889;DHT22;56848;49.896;11.424;2022-08-03T01:00:33;14.10;99.90
12889;DHT22;56848;49.896;11.424;2022-08-03T01:03:01;14.10;99.90
12889;DHT22;56848;49.896;11.424;2022-08-03T01:05:27;14.00;99.90
12889;DHT22;56848;49.896;11.424;2022-08-03T01:08:12;13.90;99.90
12889;DHT22;56848;49.896;11.424;2022-08-03T01:15:49;13.90;99.90
12889;DHT22;56848;49.896;11.424;2022-08-03T01:18:40;14.00;99.90
12889;DHT22;56848;49.896;11.424;2022-08-03T01:21:15;14.10;99.90
12889;DHT22;56848;49.896;11.424;2022-08-03T01:27:06;14.00;99.90
12889;DHT22;56848;49.896;11.424;2022-08-03T01:30:15;14.00;99.90
12889;DHT22;56848;49.896;11.424;2022-08-03T01:32:36;13.90;99.90
12889;DHT22;56848;49.896;11.424;2022-08-03T01:35:13;13.80;99.90
12889;DHT22;56848;49.896;11.424;2022-08-03T01:37:56;13.70;99.90
12889;DHT22;56848;49.896;11.424;2022-08-03T01:40:24;13.70;99.90
12889;DHT22;56848;49.896;11.424;2022-08-03T01:42:54;13.70;99.90
12889;DHT22;56848;49.896;11.424;2022-08-03T01:45:21;13.60;99.90
12889;DHT22;56848;49.896;11.424;2022-08-03T01:47:48;13.50;99.90
12889;DHT22;56848;49.896;11.424;2022-08-03T01:50:16;13.60;99.90
12889;DHT22;56848;49.896;11.424;2022-08-03T01:52:44;13.50;99.90
12889;DHT22;56848;49.896;11.424;2022-08-03T01:55:11;13.50;99.90
12889;DHT22;56848;49.896;11.424;2022-08-03T01:57:39;13.40;99.90
12889;DHT22;56848;49.896;11.424;2022-08-03T02:00:07;13.50;99.90
12889;DHT22;56848;49.896;11.424;2022-08-03T02:02:36;13.40;99.90
12889;DHT22;56848;49.896;11.424;2022-08-03T02:05:05;13.40;99.90
12889;DHT22;56848;49.896;11.424;2022-08-03T02:07:33;13.40;99.90
12889;DHT22;56848;49.896;11.424;2022-08-03T02:41:55;13.50;99.90
12889;DHT22;56848;49.896;11.424;2022-08-03T02:44:27;13.20;99.90
12889;DHT22;56848;49.896;11.424;2022-08-03T02:47:00;13.30;99.90
12889;DHT22;56848;49.896;11.424;2022-08-03T02:49:26;13.30;99.90
12889;DHT22;56848;49.896;11.424;2022-08-03T02:51:54;13.20;99.90
12889;DHT22;56848;49.896;11.424;2022-08-03T03:01:44;13.10;99.90
12889;DHT22;56848;49.896;11.424;2022-08-03T03:04:10;12.80;99.90
12889;DHT22;56848;49.896;11.424;2022-08-03T03:06:38;12.60;99.90
12889;DHT22;56848;49.896;11.424;2022-08-03T03:09:04;12.50;99.90
12889;DHT22;56848;49.896;11.424;2022-08-03T03:11:30;12.60;99.90
12889;DHT22;56848;49.896;11.424;2022-08-03T03:13:56;12.50;99.90
12889;DHT22;56848;49.896;11.424;2022-08-03T03:16:23;12.50;99.90
12889;DHT22;56848;49.896;11.424;2022-08-03T03:18:50;12.60;99.90
12889;DHT22;56848;49.896;11.424;2022-08-03T03:21:17;12.70;99.90
12889;DHT22;56848;49.896;11.424;2022-08-03T03:23:44;12.80;99.90
12889;DHT22;56848;49.896;11.424;2022-08-03T03:26:12;12.90;99.90
12889;DHT22;56848;49.896;11.424;2022-08-03T17:16:06;12.90;99.90
12889;DHT22;56848;49.896;11.424;2022-08-03T17:18:39;28.00;99.90
12889;DHT22;56848;49.896;11.424;2022-08-03T17:21:08;27.70;99.90
12889;DHT22;56848;49.896;11.424;2022-08-03T17:23:38;27.50;99.90
12889;DHT22;56848;49.896;11.424;2022-08-03T17:26:09;27.50;99.90
12889;DHT22;56848;49.896;11.424;2022-08-03T17:28:44;27.40;99.90
12889;DHT22;56848;49.896;11.424;2022-08-03T17:31:10;27.20;99.90
12889;DHT22;56848;49.896;11.424;2022-08-03T17:33:40;27.00;99.90
12889;DHT22;56848;49.896;11.424;2022-08-03T17:36:07;26.90;99.90
12889;DHT22;56848;49.896;11.424;2022-08-03T17:38:36;26.70;99.90
12889;DHT22;56848;49.896;11.424;2022-08-03T17:41:02;26.60;99.90
12889;DHT22;56848;49.896;11.424;2022-08-03T17:43:28;26.60;99.90
12889;DHT22;56848;49.896;11.424;2022-08-03T17:45:53;26.50;99.90
12889;DHT22;56848;49.896;11.424;2022-08-03T17:48:19;26.40;99.90
12889;DHT22;56848;49.896;11.424;2022-08-03T17:50:50;26.30;99.90
12889;DHT22;56848;49.896;11.424;2022-08-03T17:53:23;26.20;99.90
12889;DHT22;56848;49.896;11.424;2022-08-03T17:56:15;26.10;99.90
12889;DHT22;56848;49.896;11.424;2022-08-03T18:02:20;26.00;99.90
12889;DHT22;56848;49.896;11.424;2022-08-03T18:05:01;25.90;99.90
12889;DHT22;56848;49.896;11.424;2022-08-03T18:07:27;25.80;99.90
12889;DHT22;56848;49.896;11.424;2022-08-03T18:09:57;25.70;99.90
12889;DHT22;56848;49.896;11.424;2022-08-03T18:12:27;25.60;99.90
12889;DHT22;56848;49.896;11.424;2022-08-03T18:15:00;25.50;99.90
12889;DHT22;56848;49.896;11.424;2022-08-03T18:17:32;25.40;99.90
12889;DHT22;56848;49.896;11.424;2022-08-03T18:19:58;25.20;99.90
12889;DHT22;56848;49.896;11.424;2022-08-03T18:22:27;25.20;99.90
12889;DHT22;56848;49.896;11.424;2022-08-03T18:24:54;25.10;99.90
12889;DHT22;56848;49.896;11.424;2022-08-03T18:27:21;25.10;99.90
12889;DHT22;56848;49.896;11.424;2022-08-03T18:29:48;25.10;99.90
12889;DHT22;56848;49.896;11.424;2022-08-03T18:32:14;24.90;99.90
12889;DHT22;56848;49.896;11.424;2022-08-03T18:34:41;24.80;99.90
12889;DHT22;56848;49.896;11.424;2022-08-03T18:37:07;24.70;99.90
12889;DHT22;56848;49.896;11.424;2022-08-03T18:39:36;24.60;99.90
12889;DHT22;56848;49.896;11.424;2022-08-03T18:42:04;24.50;99.90
12889;DHT22;56848;49.896;11.424;2022-08-03T18:44:32;24.40;99.90
12889;DHT22;56848;49.896;11.424;2022-08-03T18:52:25;24.00;99.90
12889;DHT22;56848;49.896;11.424;2022-08-03T18:55:18;23.90;99.90
12889;DHT22;56848;49.896;11.424;2022-08-03T18:57:51;23.90;99.90
12889;DHT22;56848;49.896;11.424;2022-08-03T19:00:20;23.90;99.90
12889;DHT22;56848;49.896;11.424;2022-08-03T19:02:55;23.60;99.90
12889;DHT22;56848;49.896;11.424;2022-08-03T19:05:23;23.40;99.90
12889;DHT22;56848;49.896;11.424;2022-08-03T19:08:04;23.30;99.90
12889;DHT22;56848;49.896;11.424;2022-08-03T19:10:36;23.40;99.90
12889;DHT22;56848;49.896;11.424;2022-08-03T19:13:10;23.40;99.90
12889;DHT22;56848;49.896;11.424;2022-08-03T19:15:37;23.30;99.90
12889;DHT22;56848;49.896;11.424;2022-08-03T19:18:05;23.20;99.90
12889;DHT22;56848;49.896;11.424;2022-08-03T19:20:31;23.20;99.90
12889;DHT22;56848;49.896;11.424;2022-08-03T19:22:59;23.20;99.90
12889;DHT22;56848;49.896;11.424;2022-08-03T19:25:26;23.00;99.90
12889;DHT22;56848;49.896;11.424;2022-08-03T19:27:52;22.90;99.90
12889;DHT22;56848;49.896;11.424;2022-08-03T19:30:19;22.80;99.90
12889;DHT22;56848;49.896;11.424;2022-08-03T19:33:08;22.60;99.90
12889;DHT22;56848;49.896;11.424;2022-08-03T19:35:35;22.60;99.90
12889;DHT22;56848;49.896;11.424;2022-08-03T19:38:03;22.50;99.90
12889;DHT22;56848;49.896;11.424;2022-08-03T19:40:31;22.50;99.90
12889;DHT22;56848;49.896;11.424;2022-08-03T19:43:08;22.40;99.90
12889;DHT22;56848;49.896;11.424;2022-08-03T19:45:37;22.20;99.90
12889;DHT22;56848;49.896;11.424;2022-08-03T19:48:10;22.20;99.90
12889;DHT22;56848;49.896;11.424;2022-08-03T19:50:37;22.20;99.90
12889;DHT22;56848;49.896;11.424;2022-08-03T19:53:08;22.20;99.90
12889;DHT22;56848;49.896;11.424;2022-08-03T19:55:42;22.10;99.90
12889;DHT22;56848;49.896;11.424;2022-08-03T19:58:09;21.90;99.90
12889;DHT22;56848;49.896;11.424;2022-08-03T20:00:38;21.90;99.90
12889;DHT22;56848;49.896;11.424;2022-08-03T20:03:05;21.70;99.90
12889;DHT22;56848;49.896;11.424;2022-08-03T20:05:32;21.70;99.90
12889;DHT22;56848;49.896;11.424;2022-08-03T20:08:00;21.70;99.90
12889;DHT22;56848;49.896;11.424;2022-08-03T20:10:30;21.70;99.90
12889;DHT22;56848;49.896;11.424;2022-08-03T20:12:58;21.70;99.90
12889;DHT22;56848;49.896;11.424;2022-08-03T20:15:24;21.60;99.90
12889;DHT22;56848;49.896;11.424;2022-08-03T20:17:51;21.50;99.90
12889;DHT22;56848;49.896;11.424;2022-08-03T20:20:42;21.40;99.90
12889;DHT22;56848;49.896;11.424;2022-08-03T20:23:10;21.20;99.90
12889;DHT22;56848;49.896;11.424;2022-08-03T20:25:49;21.10;99.90
12889;DHT22;56848;49.896;11.424;2022-08-03T20:28:30;21.20;99.90
12889;DHT22;56848;49.896;11.424;2022-08-03T20:30:56;21.10;99.90
12889;DHT22;56848;49.896;11.424;2022-08-03T20:33:22;21.10;99.90
12889;DHT22;56848;49.896;11.424;2022-08-03T20:35:48;21.00;99.90
12889;DHT22;56848;49.896;11.424;2022-08-03T20:38:14;20.80;99.90
12889;DHT22;56848;49.896;11.424;2022-08-03T20:40:40;20.80;99.90
12889;DHT22;56848;49.896;11.424;2022-08-03T20:43:06;20.80;99.90
12889;DHT22;56848;49.896;11.424;2022-08-03T20:45:32;20.80;99.90
12889;DHT22;56848;49.896;11.424;2022-08-03T20:48:00;20.70;99.90
12889;DHT22;56848;49.896;11.424;2022-08-03T20:50:26;20.80;99.90
12889;DHT22;56848;49.896;11.424;2022-08-03T20:52:53;20.70;99.90
12889;DHT22;56848;49.896;11.424;2022-08-03T20:55:19;20.60;99.90
12889;DHT22;56848;49.896;11.424;2022-08-03T20:57:45;20.50;99.90
